Time;durP1;ratioP1;P1;durP2;ratioP2;P2;SDS_P1;SDS_P2;PMS_P1;PMS_P2;Temp;Humidity;BMP_temperature;BMP_pressure;BME280_temperature;BME280_humidity;BME280_pressure;Samples;Min_cycle;Max_cycle;Signal;HPM_P1;HPM_P2
2023/01/26 00:01:52;;;;;;;18.73;13.80;;;1.70;99.90;;;;;;5092742;28;20199;-77
2023/01/26 00:04:22;;;;;;;22.57;15.73;;;1.80;99.90;;;;;;5089268;28;20211;-76
2023/01/26 00:06:55;;;;;;;19.40;13.67;;;1.80;99.90;;;;;;5085040;28;20223;-77
2023/01/26 00:09:33;;;;;;;20.10;14.07;;;1.90;99.90;;;;;;5072960;28;20188;-78
2023/01/26 00:12:04;;;;;;;16.87;11.97;;;1.80;99.80;;;;;;5080978;28;20671;-78
2023/01/26 00:14:48;;;;;;;18.80;12.87;;;1.80;99.90;;;;;;5072271;28;20675;-80
2023/01/26 00:17:26;;;;;;;17.37;12.53;;;1.80;99.90;;;;;;5072352;28;20177;-76
2023/01/26 00:19:57;;;;;;;19.73;13.47;;;1.80;99.90;;;;;;5072396;28;20536;-77
2023/01/26 00:22:27;;;;;;;15.83;11.97;;;1.80;99.90;;;;;;5072066;28;20205;-77
2023/01/26 00:24:56;;;;;;;16.30;12.73;;;1.70;99.90;;;;;;5054197;28;20200;-76
2023/01/26 00:27:25;;;;;;;14.47;10.90;;;1.60;99.90;;;;;;5072031;28;20308;-79
2023/01/26 00:29:57;;;;;;;15.67;11.93;;;1.60;99.90;;;;;;5072257;28;20201;-76
2023/01/26 00:32:27;;;;;;;15.73;10.87;;;1.60;99.90;;;;;;5072087;28;20280;-77
2023/01/26 00:34:56;;;;;;;14.33;11.70;;;1.60;99.90;;;;;;5070660;28;20214;-75
2023/01/26 00:37:25;;;;;;;16.73;12.23;;;1.60;99.90;;;;;;5072020;28;20656;-80
2023/01/26 00:39:54;;;;;;;15.93;10.80;;;1.60;99.90;;;;;;5072261;28;20193;-76
2023/01/26 00:42:24;;;;;;;14.00;10.43;;;1.60;99.90;;;;;;5053869;28;20253;-76
2023/01/26 00:44:53;;;;;;;17.13;12.23;;;1.70;99.90;;;;;;5072049;28;20655;-75
2023/01/26 00:47:27;;;;;;;16.37;11.90;;;1.70;99.90;;;;;;5071883;28;21018;-79
2023/01/26 00:49:57;;;;;;;16.87;11.67;;;1.60;99.90;;;;;;5070142;28;20227;-76
2023/01/26 00:52:32;;;;;;;14.83;11.17;;;1.60;99.90;;;;;;5053994;28;20229;-75
2023/01/26 00:55:05;;;;;;;19.60;13.30;;;1.60;99.90;;;;;;5071991;28;20243;-77
2023/01/26 00:57:40;;;;;;;18.27;11.97;;;1.70;99.90;;;;;;5071609;28;20694;-78
2023/01/26 01:00:15;;;;;;;17.37;11.70;;;1.80;99.90;;;;;;5070633;28;20288;-76
2023/01/26 01:02:56;;;;;;;16.83;11.57;;;1.80;99.90;;;;;;5071608;28;20288;-77
2023/01/26 01:05:26;;;;;;;16.07;11.80;;;1.90;99.90;;;;;;5063065;28;20745;-76
2023/01/26 01:07:55;;;;;;;17.33;12.67;;;1.80;99.90;;;;;;5071794;28;20312;-77
2023/01/26 01:10:31;;;;;;;17.97;11.73;;;1.70;99.90;;;;;;5071720;28;20635;-77
2023/01/26 01:13:14;;;;;;;18.03;12.70;;;1.60;99.90;;;;;;5055003;28;20547;-76
2023/01/26 01:16:04;;;;;;;19.17;12.90;;;1.60;99.90;;;;;;5071603;28;20663;-76
2023/01/26 01:18:36;;;;;;;16.17;11.07;;;1.60;99.90;;;;;;5070442;28;20712;-77
2023/01/26 01:21:18;;;;;;;17.77;11.60;;;1.70;99.90;;;;;;5071719;28;20629;-77
2023/01/26 01:23:47;;;;;;;16.57;12.30;;;1.80;99.90;;;;;;5075331;28;20212;-78
2023/01/26 01:26:16;;;;;;;16.03;11.53;;;1.70;99.90;;;;;;5057306;28;20193;-77
2023/01/26 01:28:46;;;;;;;15.87;12.07;;;1.70;99.90;;;;;;5074086;28;20572;-79
2023/01/26 01:31:16;;;;;;;16.50;11.80;;;1.70;99.90;;;;;;5057387;28;20197;-77
2023/01/26 01:33:48;;;;;;;16.13;12.67;;;1.70;99.90;;;;;;5075269;28;20670;-79
2023/01/26 01:36:30;;;;;;;18.20;11.37;;;1.80;99.90;;;;;;5073775;28;20687;-77
2023/01/26 01:39:05;;;;;;;22.33;13.37;;;1.80;99.90;;;;;;5075146;28;20275;-80
2023/01/26 01:41:46;;;;;;;19.47;12.70;;;1.70;99.90;;;;;;5075120;28;20345;-78
2023/01/26 01:44:18;;;;;;;16.67;11.97;;;1.70;99.90;;;;;;5073569;28;20639;-78
2023/01/26 01:46:53;;;;;;;18.20;11.63;;;1.70;99.90;;;;;;5074753;28;20213;-80
2023/01/26 01:49:28;;;;;;;16.77;11.97;;;1.70;99.90;;;;;;5073436;28;20563;-79
2023/01/26 01:52:02;;;;;;;20.40;13.00;;;1.80;99.90;;;;;;5075124;28;20204;-79
2023/01/26 01:54:36;;;;;;;16.93;12.03;;;1.80;99.90;;;;;;5056980;28;20206;-78
2023/01/26 01:57:16;;;;;;;17.73;12.70;;;1.80;99.90;;;;;;5073301;28;20196;-78
2023/01/26 01:59:50;;;;;;;19.70;12.37;;;1.80;99.90;;;;;;5074767;28;20203;-77
2023/01/26 02:02:25;;;;;;;17.50;12.53;;;1.90;99.90;;;;;;5073358;28;20227;-77
2023/01/26 02:04:59;;;;;;;18.40;12.67;;;1.90;99.90;;;;;;5074587;28;20189;-76
2023/01/26 02:07:32;;;;;;;18.67;12.30;;;1.90;99.90;;;;;;5074667;28;20211;-81
2023/01/26 02:10:20;;;;;;;19.53;11.73;;;1.90;99.90;;;;;;5074575;28;20240;-77
2023/01/26 02:13:00;;;;;;;20.37;13.20;;;1.90;99.90;;;;;;5032277;28;20202;-77
2023/01/26 02:15:47;;;;;;;18.87;13.40;;;1.90;99.90;;;;;;5032146;28;20206;-78
2023/01/26 02:18:17;;;;;;;20.07;12.37;;;1.90;99.90;;;;;;5014459;28;20207;-77
2023/01/26 02:20:51;;;;;;;18.37;12.50;;;1.90;99.90;;;;;;5031753;28;20256;-77
2023/01/26 02:23:37;;;;;;;20.17;12.43;;;1.80;99.90;;;;;;5012192;28;20209;-77
2023/01/26 02:26:13;;;;;;;21.30;12.87;;;1.80;99.90;;;;;;4995841;28;20210;-78
2023/01/26 02:28:51;;;;;;;19.50;13.57;;;1.90;99.90;;;;;;5012022;28;20242;-78
2023/01/26 02:31:25;;;;;;;19.60;13.30;;;1.90;99.90;;;;;;5016766;28;20288;-77
2023/01/26 02:33:55;;;;;;;20.93;13.00;;;1.90;99.90;;;;;;5006787;28;20237;-78
2023/01/26 02:36:26;;;;;;;17.43;12.13;;;1.90;99.90;;;;;;5031859;28;20322;-78
2023/01/26 02:39:12;;;;;;;17.50;12.03;;;1.90;99.90;;;;;;5031788;28;20199;-77
2023/01/26 02:44:30;;;;;;;18.33;11.63;;;1.90;99.90;;;;;;5043671;28;20229;-77
2023/01/26 02:46:59;;;;;;;17.87;12.60;;;1.90;99.90;;;;;;5056086;28;20635;-78
2023/01/26 02:49:49;;;;;;;17.23;12.47;;;1.90;99.90;;;;;;5055864;28;20220;-76
2023/01/26 02:52:25;;;;;;;20.93;12.63;;;1.80;99.90;;;;;;5055729;28;20250;-77
2023/01/26 02:57:49;;;;;;;15.53;11.50;;;1.80;99.90;;;;;;5038887;28;20210;-78
2023/01/26 03:00:35;;;;;;;18.17;11.03;;;1.80;99.90;;;;;;5073737;28;20185;-79
2023/01/26 03:03:12;;;;;;;17.47;11.50;;;1.70;99.90;;;;;;5055501;28;20608;-76
2023/01/26 03:05:41;;;;;;;16.60;11.30;;;1.60;99.90;;;;;;5055652;28;20205;-76
2023/01/26 03:08:10;;;;;;;16.80;11.20;;;1.60;99.90;;;;;;5072050;28;20630;-77
2023/01/26 03:10:49;;;;;;;;;;;;;;;;;;;;;
2023/01/26 03:13:20;;;;;;;17.87;12.10;;;1.70;99.90;;;;;;5055491;28;20208;-77
2023/01/26 03:15:53;;;;;;;16.67;11.87;;;1.80;99.90;;;;;;5055114;28;20201;-77
2023/01/26 03:27:26;;;;;;;19.93;12.53;;;1.80;99.90;;;;;;4975210;28;20573;-77
2023/01/26 03:30:00;;;;;;;17.17;11.53;;;1.80;99.90;;;;;;4991041;28;20215;-77
2023/01/26 03:32:36;;;;;;;18.77;12.20;;;1.80;99.90;;;;;;4991400;28;20203;-78
2023/01/26 03:35:21;;;;;;;21.20;12.43;;;1.70;99.90;;;;;;4991363;28;20576;-76
2023/01/26 03:37:54;;;;;;;20.90;13.50;;;1.70;99.90;;;;;;4991352;28;20211;-79
2023/01/26 03:57:48;;;;;;;18.33;12.47;;;1.80;99.90;;;;;;5071238;28;20215;-79
2023/01/26 04:00:20;;;;;;;19.20;12.40;;;1.90;99.90;;;;;;5054446;28;20220;-79
2023/01/26 04:09:26;;;;;;;18.33;11.93;;;2.00;99.90;;;;;;5054223;28;20236;-79
2023/01/26 04:11:56;;;;;;;20.97;13.47;;;2.00;99.90;;;;;;5070353;28;20197;-78
2023/01/26 04:23:38;;;;;;;21.97;13.90;;;1.90;99.90;;;;;;5070618;28;20197;-80
2023/01/26 04:26:15;;;;;;;22.00;14.30;;;2.00;99.90;;;;;;5054204;28;20224;-81
2023/01/26 04:28:44;;;;;;;21.77;14.00;;;2.00;99.90;;;;;;5071837;28;20223;-79
2023/01/26 04:31:15;;;;;;;21.93;14.20;;;1.90;99.90;;;;;;5072237;28;20537;-79
2023/01/26 04:33:45;;;;;;;22.33;13.60;;;1.80;99.90;;;;;;5070657;28;20201;-77
2023/01/26 04:36:24;;;;;;;22.33;13.23;;;1.80;99.90;;;;;;5070849;28;20295;-78
2023/01/26 04:38:53;;;;;;;24.30;15.87;;;1.70;99.90;;;;;;5053802;28;20201;-77
2023/01/26 04:41:24;;;;;;;23.47;13.60;;;1.70;99.90;;;;;;5070601;28;20201;-78
2023/01/26 04:44:01;;;;;;;19.93;13.37;;;1.60;99.90;;;;;;5067036;28;20225;-77
2023/01/26 04:46:32;;;;;;;23.90;13.73;;;1.70;99.90;;;;;;5066829;28;20201;-77
2023/01/26 04:49:03;;;;;;;22.83;14.43;;;1.60;99.90;;;;;;5071920;28;20212;-77
2023/01/26 04:51:35;;;;;;;19.67;13.57;;;1.60;99.90;;;;;;5070628;28;20223;-77
2023/01/26 04:54:04;;;;;;;20.63;14.40;;;1.60;99.90;;;;;;5072020;28;20272;-77
2023/01/26 04:56:38;;;;;;;19.43;13.10;;;1.60;99.90;;;;;;5074871;28;20200;-77
2023/01/26 04:59:11;;;;;;;21.50;13.53;;;1.70;99.90;;;;;;5075966;28;20193;-76
2023/01/26 05:01:42;;;;;;;22.90;13.87;;;1.70;99.90;;;;;;5074843;28;20542;-79
2023/01/26 05:04:19;;;;;;;19.63;13.53;;;1.80;99.90;;;;;;5074820;28;20205;-78
2023/01/26 05:06:57;;;;;;;24.27;14.37;;;1.80;99.90;;;;;;5074877;28;20220;-80
2023/01/26 05:09:27;;;;;;;22.83;14.63;;;1.80;99.90;;;;;;5074397;28;20227;-77
2023/01/26 05:12:34;;;;;;;23.80;14.00;;;1.80;99.90;;;;;;5013684;28;20205;-77
2023/01/26 05:15:31;;;;;;;24.90;14.30;;;1.80;99.90;;;;;;4996909;28;20212;-77
2023/01/26 05:18:06;;;;;;;26.40;15.97;;;1.60;99.90;;;;;;4997460;28;20665;-76
2023/01/26 05:21:08;;;;;;;26.80;14.70;;;1.70;99.90;;;;;;4936154;28;20683;-77
2023/01/26 05:23:46;;;;;;;27.00;16.83;;;1.60;99.90;;;;;;4936038;29;20296;-80
2023/01/26 05:27:19;;;;;;;29.67;17.20;;;1.60;99.90;;;;;;4935930;29;20367;-77
2023/01/26 05:29:43;;;;;;;26.17;16.67;;;1.60;99.90;;;;;;4920012;29;20257;-77
2023/01/26 05:32:12;;;;;;;26.30;15.73;;;1.60;99.90;;;;;;4936073;29;20202;-75
2023/01/26 05:34:42;;;;;;;34.03;16.03;;;1.60;99.90;;;;;;4931484;29;20205;-80
2023/01/26 05:37:15;;;;;;;27.77;16.67;;;1.50;99.90;;;;;;4900858;29;20238;-77
2023/01/26 05:39:47;;;;;;;25.33;15.00;;;1.70;99.90;;;;;;4916764;29;20209;-79
2023/01/26 05:42:16;;;;;;;27.40;15.70;;;1.70;99.90;;;;;;4900697;29;20214;-79
2023/01/26 05:45:01;;;;;;;30.27;16.20;;;1.60;99.90;;;;;;4919541;29;20696;-80
2023/01/26 05:47:41;;;;;;;27.17;16.33;;;1.50;99.90;;;;;;4925076;28;20205;-78
2023/01/26 05:50:20;;;;;;;27.67;16.30;;;1.60;99.90;;;;;;4972964;28;20236;-78
2023/01/26 05:53:15;;;;;;;29.73;15.23;;;1.60;99.90;;;;;;4972929;28;20204;-78
2023/01/26 05:55:46;;;;;;;26.70;14.80;;;1.60;99.90;;;;;;4972965;28;20200;-80
2023/01/26 05:58:16;;;;;;;24.17;14.63;;;1.60;99.90;;;;;;5016058;28;20264;-80
2023/01/26 06:00:45;;;;;;;24.07;15.20;;;1.60;99.90;;;;;;5036021;28;20679;-79
2023/01/26 06:03:22;;;;;;;23.23;15.00;;;1.50;99.90;;;;;;5035977;28;20197;-78
2023/01/26 06:05:54;;;;;;;22.50;14.30;;;1.50;99.90;;;;;;5011451;28;20735;-79
2023/01/26 06:08:39;;;;;;;21.17;12.97;;;1.60;99.90;;;;;;5020296;28;20203;-78
2023/01/26 06:11:28;;;;;;;24.27;15.10;;;1.60;99.90;;;;;;5031049;28;20224;-78
2023/01/26 06:14:23;;;;;;;27.03;15.33;;;1.70;99.90;;;;;;5098876;23;20249;-78
2023/01/26 06:17:01;;;;;;;26.60;15.90;;;1.60;99.90;;;;;;5093835;28;20188;-74
2023/01/26 06:19:30;;;;;;;27.07;17.10;;;1.60;99.90;;;;;;5074922;28;20201;-79
2023/01/26 06:22:00;;;;;;;27.43;16.37;;;1.50;99.90;;;;;;5079243;28;20254;-77
2023/01/26 06:24:33;;;;;;;27.53;16.43;;;1.50;99.90;;;;;;5083454;28;20269;-76
2023/01/26 06:27:05;;;;;;;30.40;16.83;;;1.50;99.90;;;;;;5075467;28;20743;-78
2023/01/26 06:29:35;;;;;;;29.30;16.03;;;1.50;99.90;;;;;;5075331;28;20235;-77
2023/01/26 06:32:04;;;;;;;33.33;16.90;;;1.60;99.90;;;;;;5075124;28;20196;-79
2023/01/26 06:34:41;;;;;;;27.63;15.37;;;1.60;99.90;;;;;;5075315;28;20746;-79
2023/01/26 06:37:16;;;;;;;28.07;16.40;;;1.70;99.90;;;;;;5074934;28;20227;-78
2023/01/26 06:39:54;;;;;;;29.67;16.80;;;1.60;99.90;;;;;;5084338;28;20227;-79
2023/01/26 06:42:25;;;;;;;31.57;16.47;;;1.60;99.90;;;;;;5086120;28;20288;-78
2023/01/26 06:45:02;;;;;;;28.47;16.90;;;1.60;99.90;;;;;;5055271;28;20323;-78
2023/01/26 06:47:31;;;;;;;29.90;16.47;;;1.70;99.90;;;;;;5074549;28;20200;-79
2023/01/26 06:50:11;;;;;;;33.40;15.33;;;1.60;99.90;;;;;;5075118;28;20318;-77
2023/01/26 06:52:43;;;;;;;30.47;17.17;;;1.60;99.90;;;;;;5074420;28;20234;-77
2023/01/26 06:55:35;;;;;;;31.33;16.00;;;1.60;99.90;;;;;;5097550;28;20209;-78
2023/01/26 06:58:44;;;;;;;29.30;16.40;;;1.60;99.90;;;;;;5080981;22;20235;-78
2023/01/26 07:01:43;;;;;;;33.33;16.67;;;1.60;99.90;;;;;;4980455;28;20204;-79
2023/01/26 07:04:26;;;;;;;29.60;16.50;;;1.60;99.90;;;;;;4972308;28;20578;-78
2023/01/26 07:06:55;;;;;;;30.03;16.37;;;1.60;99.90;;;;;;4990610;28;20212;-77
2023/01/26 07:09:24;;;;;;;31.50;16.57;;;1.70;99.90;;;;;;4991379;28;20306;-76
2023/01/26 07:11:59;;;;;;;28.13;16.33;;;1.70;99.90;;;;;;4974975;28;20777;-79
2023/01/26 07:14:31;;;;;;;29.23;16.10;;;1.70;99.90;;;;;;4991563;28;20217;-77
2023/01/26 07:17:00;;;;;;;29.47;16.07;;;1.70;99.90;;;;;;4991889;28;20242;-75
2023/01/26 07:19:32;;;;;;;29.43;15.60;;;1.70;99.90;;;;;;4990689;28;20208;-78
2023/01/26 07:22:01;;;;;;;35.23;17.30;;;1.70;99.90;;;;;;4991487;28;20203;-75
2023/01/26 07:24:30;;;;;;;29.43;17.03;;;1.60;99.90;;;;;;4991066;28;20200;-75
2023/01/26 07:26:59;;;;;;;37.10;18.23;;;1.60;99.90;;;;;;4991638;28;20724;-75
2023/01/26 07:29:29;;;;;;;33.10;17.17;;;1.70;99.90;;;;;;4991452;28;20226;-75
2023/01/26 07:31:58;;;;;;;31.57;15.93;;;1.70;99.90;;;;;;4991454;28;20236;-76
2023/01/26 07:34:27;;;;;;;37.53;18.07;;;1.70;99.90;;;;;;4990958;28;20329;-76
2023/01/26 07:37:10;;;;;;;35.20;17.50;;;1.60;99.90;;;;;;4990045;28;20294;-77
2023/01/26 07:39:40;;;;;;;33.63;18.60;;;1.50;99.90;;;;;;5038745;28;20229;-79
2023/01/26 07:42:10;;;;;;;44.07;19.73;;;1.60;99.90;;;;;;5056541;28;20279;-78
2023/01/26 07:45:00;;;;;;;42.70;19.67;;;1.60;99.90;;;;;;5071357;28;20203;-75
2023/01/26 07:47:32;;;;;;;35.37;19.27;;;1.70;99.90;;;;;;5072594;28;20197;-81
2023/01/26 07:50:04;;;;;;;33.93;18.13;;;1.70;99.90;;;;;;5071949;28;20262;-78
2023/01/26 07:52:33;;;;;;;36.37;19.03;;;1.70;99.90;;;;;;5072366;28;20279;-79
2023/01/26 07:55:02;;;;;;;33.83;18.30;;;1.60;99.90;;;;;;5072007;28;20196;-79
2023/01/26 07:57:33;;;;;;;35.17;19.07;;;1.70;99.90;;;;;;5071892;28;20209;-79
2023/01/26 08:00:04;;;;;;;41.70;19.10;;;1.80;99.90;;;;;;5066434;28;20237;-81
2023/01/26 08:02:39;;;;;;;37.43;18.43;;;1.70;99.90;;;;;;5072146;28;20204;-78
2023/01/26 08:05:09;;;;;;;35.10;19.27;;;1.70;99.90;;;;;;5071976;28;20267;-79
2023/01/26 08:07:38;;;;;;;35.90;18.30;;;1.70;99.90;;;;;;5068596;28;20194;-78
2023/01/26 08:10:09;;;;;;;37.37;19.67;;;1.70;99.90;;;;;;5092531;28;20216;-81
2023/01/26 08:12:41;;;;;;;43.53;19.57;;;1.60;99.90;;;;;;5092428;28;20199;-79
2023/01/26 08:15:12;;;;;;;36.83;18.83;;;1.60;99.90;;;;;;5092328;28;20649;-81
2023/01/26 08:17:41;;;;;;;40.17;20.63;;;1.60;99.90;;;;;;5092325;28;20219;-76
2023/01/26 08:20:12;;;;;;;36.80;18.40;;;1.70;99.90;;;;;;5092260;28;20623;-77
2023/01/26 08:22:41;;;;;;;35.33;18.57;;;1.70;99.90;;;;;;5092164;28;20711;-78
2023/01/26 08:25:10;;;;;;;43.10;19.33;;;1.70;99.90;;;;;;5091814;28;20299;-81
2023/01/26 08:27:39;;;;;;;38.00;18.70;;;1.70;99.90;;;;;;5092389;28;20673;-80
2023/01/26 08:30:09;;;;;;;36.83;18.67;;;1.80;99.90;;;;;;5076101;28;20622;-82
2023/01/26 08:32:40;;;;;;;36.90;18.13;;;1.80;99.90;;;;;;5072157;28;20543;-81
2023/01/26 08:35:10;;;;;;;39.33;20.10;;;1.70;99.90;;;;;;5069252;28;20197;-79
2023/01/26 08:37:39;;;;;;;43.17;20.07;;;1.60;99.90;;;;;;5072355;28;20250;-81
2023/01/26 08:40:10;;;;;;;42.13;19.30;;;1.80;99.90;;;;;;5072274;28;20612;-81
2023/01/26 08:42:39;;;;;;;37.93;19.53;;;1.80;99.90;;;;;;5071055;28;20200;-81
2023/01/26 08:45:09;;;;;;;40.13;18.73;;;1.80;99.90;;;;;;5070878;28;20201;-82
2023/01/26 08:47:40;;;;;;;53.63;22.53;;;1.90;99.90;;;;;;5071918;28;20637;-81
2023/01/26 08:50:10;;;;;;;47.40;20.43;;;1.90;99.90;;;;;;5071951;28;20208;-78
2023/01/26 08:52:39;;;;;;;42.13;19.70;;;1.90;99.90;;;;;;5072037;28;20220;-77
2023/01/26 08:55:08;;;;;;;42.37;20.77;;;1.90;99.90;;;;;;5072055;28;20251;-80
2023/01/26 08:57:37;;;;;;;43.17;20.17;;;1.90;99.90;;;;;;5071983;28;20192;-79
2023/01/26 09:00:08;;;;;;;45.07;19.10;;;2.00;99.90;;;;;;5071641;28;20646;-80
2023/01/26 09:02:37;;;;;;;42.50;19.27;;;2.00;99.90;;;;;;5054474;28;20200;-81
2023/01/26 09:05:08;;;;;;;42.03;19.63;;;2.10;99.90;;;;;;5072058;28;20283;-81
2023/01/26 09:07:37;;;;;;;43.40;21.63;;;2.00;99.90;;;;;;5071630;28;20584;-80
2023/01/26 09:10:08;;;;;;;43.53;19.47;;;2.00;99.90;;;;;;5071782;28;20196;-78
2023/01/26 09:12:37;;;;;;;38.30;18.57;;;2.00;99.90;;;;;;5071870;28;20284;-79
2023/01/26 09:15:09;;;;;;;39.10;19.77;;;2.00;99.90;;;;;;5071945;28;20221;-79
2023/01/26 09:17:42;;;;;;;36.17;18.77;;;1.90;99.90;;;;;;5071663;28;20201;-79
2023/01/26 09:20:13;;;;;;;43.43;21.80;;;2.00;99.90;;;;;;5071855;28;20194;-78
2023/01/26 09:22:42;;;;;;;43.83;20.80;;;2.20;99.90;;;;;;5071673;28;20201;-79
2023/01/26 09:25:11;;;;;;;40.10;19.17;;;2.20;99.90;;;;;;5071722;28;20193;-78
2023/01/26 09:27:41;;;;;;;43.23;21.27;;;2.10;99.90;;;;;;5071783;28;20232;-77
2023/01/26 09:30:11;;;;;;;45.97;20.17;;;2.10;99.90;;;;;;5071475;28;20731;-80
2023/01/26 09:32:39;;;;;;;42.37;19.23;;;2.20;99.90;;;;;;5071754;28;20189;-79
2023/01/26 09:35:10;;;;;;;43.77;20.27;;;2.10;99.90;;;;;;5071723;28;20335;-79
2023/01/26 09:37:45;;;;;;;42.37;21.50;;;2.10;99.90;;;;;;5071646;28;20201;-79
2023/01/26 09:40:19;;;;;;;48.50;22.73;;;2.20;99.90;;;;;;5071670;28;20211;-79
2023/01/26 09:43:05;;;;;;;64.47;30.43;;;2.30;99.90;;;;;;5073994;28;20203;-81
2023/01/26 09:45:40;;;;;;;47.17;23.80;;;2.30;99.90;;;;;;5075411;28;20753;-79
2023/01/26 09:48:27;;;;;;;47.03;22.57;;;2.40;99.90;;;;;;5075141;28;20214;-80
2023/01/26 09:51:01;;;;;;;41.30;21.37;;;2.40;99.90;;;;;;5075180;28;20593;-80
2023/01/26 09:53:41;;;;;;;43.67;20.97;;;2.40;99.90;;;;;;5075196;28;20653;-80
2023/01/26 09:56:17;;;;;;;42.73;19.90;;;2.40;99.90;;;;;;5074938;28;20201;-79
2023/01/26 09:58:50;;;;;;;43.60;21.83;;;2.40;99.90;;;;;;5074945;28;20228;-79
2023/01/26 10:01:28;;;;;;;44.93;20.57;;;2.50;99.90;;;;;;5074836;28;20570;-78
2023/01/26 10:04:04;;;;;;;44.77;22.37;;;2.50;99.90;;;;;;5074822;28;20205;-78
2023/01/26 10:06:34;;;;;;;44.33;22.30;;;2.50;99.90;;;;;;5074890;28;20671;-79
2023/01/26 10:09:22;;;;;;;46.03;20.60;;;2.50;99.90;;;;;;5074889;28;20199;-79
2023/01/26 10:11:56;;;;;;;54.53;22.77;;;2.50;99.90;;;;;;5074829;28;20228;-77
2023/01/26 10:14:33;;;;;;;45.93;22.30;;;2.60;99.90;;;;;;5074436;28;20193;-78
2023/01/26 10:17:13;;;;;;;53.67;23.77;;;2.60;99.90;;;;;;5072984;28;20195;-79
2023/01/26 10:19:47;;;;;;;58.77;23.07;;;2.60;99.90;;;;;;5061475;28;20201;-79
2023/01/26 10:22:23;;;;;;;47.73;23.97;;;2.70;99.90;;;;;;5074601;28;20208;-79
2023/01/26 10:24:55;;;;;;;52.70;25.73;;;2.70;99.90;;;;;;5074533;28;20197;-78
2023/01/26 10:27:24;;;;;;;45.20;23.20;;;2.60;99.90;;;;;;5074409;28;20205;-80
2023/01/26 10:29:53;;;;;;;45.93;22.93;;;2.60;99.90;;;;;;5072732;28;20652;-78
2023/01/26 10:32:22;;;;;;;48.17;24.63;;;2.60;99.90;;;;;;5074225;28;20762;-79
2023/01/26 10:34:52;;;;;;;48.63;24.33;;;2.60;99.90;;;;;;5074416;28;20563;-79
2023/01/26 10:37:23;;;;;;;56.23;24.87;;;2.60;99.90;;;;;;5074458;28;20201;-79
2023/01/26 10:40:02;;;;;;;46.60;23.87;;;2.60;99.90;;;;;;5074142;28;20216;-78
2023/01/26 10:42:32;;;;;;;53.70;23.97;;;2.70;99.90;;;;;;5074157;28;20200;-79
2023/01/26 10:45:04;;;;;;;46.07;24.43;;;2.70;99.90;;;;;;5074020;28;20633;-78
2023/01/26 10:47:34;;;;;;;50.17;23.97;;;2.70;99.90;;;;;;5074046;28;20186;-80
2023/01/26 10:50:22;;;;;;;49.97;25.73;;;2.80;99.90;;;;;;5073902;28;20247;-79
2023/01/26 10:53:14;;;;;;;55.13;26.93;;;2.80;99.90;;;;;;5073454;28;20213;-78
2023/01/26 10:56:00;;;;;;;57.47;27.80;;;2.80;99.90;;;;;;5073467;28;20254;-80
2023/01/26 10:58:43;;;;;;;54.80;26.13;;;2.90;99.90;;;;;;5073595;28;20247;-79
2023/01/26 11:01:15;;;;;;;53.33;26.07;;;2.90;99.90;;;;;;5073455;28;20200;-80
2023/01/26 11:04:01;;;;;;;50.73;24.77;;;3.00;99.90;;;;;;5073900;28;20193;-81
2023/01/26 11:06:31;;;;;;;47.43;24.97;;;3.00;99.90;;;;;;5073419;28;20214;-80
2023/01/26 11:09:17;;;;;;;49.47;24.00;;;3.00;99.90;;;;;;5065216;28;20201;-78
2023/01/26 11:12:01;;;;;;;51.83;25.20;;;3.00;99.90;;;;;;5065632;28;20221;-80
2023/01/26 11:14:32;;;;;;;53.47;25.57;;;3.00;99.90;;;;;;5073611;28;20248;-79
2023/01/26 11:17:10;;;;;;;46.40;23.40;;;3.00;99.90;;;;;;5073202;28;20212;-77
2023/01/26 11:20:18;;;;;;;49.97;24.63;;;2.90;99.90;;;;;;5073213;28;20718;-76
2023/01/26 11:22:59;;;;;;;46.53;23.83;;;2.90;99.90;;;;;;5041982;28;20197;-77
2023/01/26 11:25:34;;;;;;;44.87;22.73;;;2.80;99.90;;;;;;5061945;28;20212;-75
2023/01/26 11:28:21;;;;;;;54.27;28.03;;;2.90;99.90;;;;;;5067777;28;20714;-75
2023/01/26 11:31:05;;;;;;;61.33;28.80;;;2.90;99.90;;;;;;5065866;28;20280;-76
2023/01/26 11:33:43;;;;;;;61.63;33.03;;;3.00;99.90;;;;;;5070655;28;20593;-78
2023/01/26 11:36:22;;;;;;;64.90;32.30;;;2.90;99.90;;;;;;5069150;28;20197;-78
2023/01/26 11:38:59;;;;;;;58.33;28.00;;;2.90;99.90;;;;;;5054640;28;20327;-77
2023/01/26 11:41:40;;;;;;;94.40;41.67;;;3.00;99.90;;;;;;5073007;28;20662;-78
2023/01/26 11:44:30;;;;;;;76.63;37.67;;;3.00;99.90;;;;;;5065570;28;20544;-79
2023/01/26 11:47:10;;;;;;;82.20;37.57;;;3.10;99.90;;;;;;5046673;28;20205;-76
2023/01/26 11:50:06;;;;;;;69.93;35.03;;;3.00;99.90;;;;;;5061415;28;20619;-76
2023/01/26 11:52:46;;;;;;;93.73;45.60;;;3.00;99.90;;;;;;5069962;28;21296;-81
2023/01/26 11:55:23;;;;;;;54.80;26.97;;;3.00;99.90;;;;;;5064355;28;20203;-77
2023/01/26 11:58:06;;;;;;;53.30;25.90;;;3.00;99.90;;;;;;5071753;28;20216;-77
2023/01/26 12:00:42;;;;;;;54.03;25.97;;;3.00;99.90;;;;;;5070850;28;20722;-78
2023/01/26 12:03:21;;;;;;;47.87;24.27;;;3.00;99.90;;;;;;5065470;28;20224;-77
2023/01/26 12:05:54;;;;;;;56.67;26.07;;;3.00;99.90;;;;;;5061192;28;20209;-77
2023/01/26 12:08:26;;;;;;;51.70;25.13;;;3.00;99.90;;;;;;5071924;28;20224;-76
2023/01/26 12:11:21;;;;;;;53.17;25.53;;;3.00;99.90;;;;;;5071316;28;20254;-76
2023/01/26 12:14:07;;;;;;;48.23;24.43;;;3.10;99.90;;;;;;5052189;28;20304;-77
2023/01/26 12:16:46;;;;;;;63.63;28.90;;;3.10;99.90;;;;;;5052235;28;20221;-76
2023/01/26 12:19:32;;;;;;;58.83;28.50;;;3.20;99.90;;;;;;5054416;28;20205;-77
2023/01/26 12:22:06;;;;;;;68.43;31.90;;;3.10;99.90;;;;;;5071357;28;20193;-78
2023/01/26 12:24:39;;;;;;;71.30;34.07;;;3.00;99.90;;;;;;5072121;28;20254;-78
2023/01/26 12:27:35;;;;;;;69.10;33.90;;;3.00;99.90;;;;;;5073151;28;20261;-77
2023/01/26 12:30:12;;;;;;;70.23;33.33;;;3.00;99.90;;;;;;5072699;28;20192;-76
2023/01/26 12:32:50;;;;;;;52.43;24.57;;;3.10;99.90;;;;;;5071257;28;20728;-78
2023/01/26 12:35:44;;;;;;;53.67;26.77;;;3.00;99.90;;;;;;5068763;28;20547;-76
2023/01/26 12:38:28;;;;;;;52.77;24.53;;;3.00;99.90;;;;;;5050699;28;20205;-75
2023/01/26 12:41:31;;;;;;;48.73;24.90;;;3.00;99.90;;;;;;5052415;28;20235;-77
2023/01/26 12:44:17;;;;;;;59.63;27.90;;;3.00;99.90;;;;;;5071972;28;20292;-76
2023/01/26 12:46:51;;;;;;;54.80;26.30;;;3.10;99.90;;;;;;5071852;28;20215;-76
2023/01/26 12:49:26;;;;;;;59.53;25.73;;;3.20;99.90;;;;;;5056936;28;20205;-76
2023/01/26 12:52:01;;;;;;;75.60;35.57;;;3.20;99.90;;;;;;5050967;28;20192;-78
2023/01/26 12:54:38;;;;;;;55.23;26.27;;;3.20;99.90;;;;;;5051957;28;20192;-78
2023/01/26 12:57:14;;;;;;;51.73;24.37;;;3.30;99.90;;;;;;5051803;28;20299;-76
2023/01/26 12:59:44;;;;;;;55.57;25.77;;;3.20;99.90;;;;;;5067113;28;20232;-79
2023/01/26 13:02:28;;;;;;;57.53;27.13;;;3.20;99.90;;;;;;5069853;28;20201;-78
2023/01/26 13:05:00;;;;;;;51.00;23.63;;;3.20;99.90;;;;;;5071495;28;20254;-79
2023/01/26 13:07:33;;;;;;;63.30;27.57;;;3.20;99.90;;;;;;5070490;28;20232;-80
2023/01/26 13:10:23;;;;;;;59.60;26.60;;;3.20;99.90;;;;;;5071789;28;20936;-78
2023/01/26 13:12:58;;;;;;;59.93;25.53;;;3.20;99.90;;;;;;5071540;28;20218;-81
2023/01/26 13:15:29;;;;;;;55.67;24.67;;;3.20;99.90;;;;;;5072232;28;20562;-78
2023/01/26 13:18:00;;;;;;;50.33;23.23;;;3.10;99.90;;;;;;5075567;28;20399;-78
2023/01/26 13:20:46;;;;;;;57.57;24.07;;;3.00;99.90;;;;;;5075061;28;20208;-78
2023/01/26 13:23:42;;;;;;;63.10;29.20;;;3.00;99.90;;;;;;5074221;28;20213;-79
2023/01/26 13:26:23;;;;;;;52.40;24.70;;;3.10;99.90;;;;;;5075209;28;20215;-78
2023/01/26 13:29:12;;;;;;;58.90;24.77;;;3.10;99.90;;;;;;5075124;28;20193;-78
2023/01/26 13:31:41;;;;;;;55.97;25.17;;;3.20;99.90;;;;;;5074824;28;20208;-79
2023/01/26 13:34:11;;;;;;;56.50;24.20;;;3.30;99.90;;;;;;5068196;28;20260;-79
2023/01/26 13:36:46;;;;;;;57.00;25.90;;;3.30;99.90;;;;;;5075303;28;20247;-78
2023/01/26 13:39:24;;;;;;;56.50;24.33;;;3.40;99.90;;;;;;5075223;28;20246;-79
2023/01/26 13:41:54;;;;;;;54.50;24.57;;;3.40;99.90;;;;;;5074757;28;20196;-80
2023/01/26 13:44:30;;;;;;;57.70;26.20;;;3.40;99.90;;;;;;5075270;28;20221;-80
2023/01/26 13:47:05;;;;;;;58.00;26.47;;;3.40;99.90;;;;;;5075057;28;20205;-79
2023/01/26 13:49:38;;;;;;;47.87;24.20;;;3.40;99.90;;;;;;5074854;28;20204;-77
2023/01/26 13:52:18;;;;;;;53.33;24.83;;;3.40;99.90;;;;;;5074532;28;20288;-77
2023/01/26 13:54:49;;;;;;;56.57;23.93;;;3.40;99.90;;;;;;5075023;28;20303;-81
2023/01/26 13:57:22;;;;;;;51.60;24.30;;;3.40;99.90;;;;;;5069535;28;20197;-79
2023/01/26 14:03:01;;;;;;;51.40;23.37;;;3.40;99.90;;;;;;5073955;28;20300;-79
2023/01/26 14:05:36;;;;;;;63.63;25.43;;;3.40;99.90;;;;;;5074868;28;20207;-77
2023/01/26 14:08:12;;;;;;;60.80;26.03;;;3.30;99.90;;;;;;5074700;28;20674;-80
2023/01/26 14:10:48;;;;;;;60.17;24.53;;;3.30;99.90;;;;;;5071074;28;20599;-81
2023/01/26 14:17:31;;;;;;;54.90;24.73;;;3.30;99.90;;;;;;4972549;28;20219;-79